sensor_id;sensor_type;location;lat;lon;timestamp;pressure;altitude;pressure_sealevel;temperature;humidity
62436;BME280;48480;50.252;18.848;2022-10-18T00:02:04;99780.31;;;13.13;65.61
62436;BME280;48480;50.252;18.848;2022-10-18T00:04:48;99785.44;;;13.07;65.52
62436;BME280;48480;50.252;18.848;2022-10-18T00:07:32;99783.76;;;12.99;65.63
62436;BME280;48480;50.252;18.848;2022-10-18T00:10:16;99787.55;;;12.92;65.88
62436;BME280;48480;50.252;18.848;2022-10-18T00:13:00;99788.66;;;12.86;66.01
62436;BME280;48480;50.252;18.848;2022-10-18T00:15:50;99791.19;;;12.83;66.12
62436;BME280;48480;50.252;18.848;2022-10-18T00:18:34;99786.31;;;12.80;66.19
62436;BME280;48480;50.252;18.848;2022-10-18T00:21:20;99785.02;;;12.76;66.30
62436;BME280;48480;50.252;18.848;2022-10-18T00:24:05;99785.04;;;12.73;66.40
62436;BME280;48480;50.252;18.848;2022-10-18T00:26:49;99784.46;;;12.69;66.46
62436;BME280;48480;50.252;18.848;2022-10-18T00:29:33;99783.14;;;12.67;66.53
62436;BME280;48480;50.252;18.848;2022-10-18T00:32:17;99780.33;;;12.65;66.54
62436;BME280;48480;50.252;18.848;2022-10-18T00:35:01;99779.13;;;12.66;66.53
62436;BME280;48480;50.252;18.848;2022-10-18T00:37:45;99776.86;;;12.67;66.57
62436;BME280;48480;50.252;18.848;2022-10-18T00:40:29;99779.30;;;12.68;66.48
62436;BME280;48480;50.252;18.848;2022-10-18T00:43:14;99774.15;;;12.68;66.53
62436;BME280;48480;50.252;18.848;2022-10-18T00:45:59;99771.61;;;12.65;66.50
62436;BME280;48480;50.252;18.848;2022-10-18T00:48:43;99768.61;;;12.65;66.57
62436;BME280;48480;50.252;18.848;2022-10-18T00:51:32;99767.94;;;12.65;66.57
62436;BME280;48480;50.252;18.848;2022-10-18T00:54:17;99768.55;;;12.65;66.62
62436;BME280;48480;50.252;18.848;2022-10-18T00:57:02;99762.00;;;12.63;66.67
62436;BME280;48480;50.252;18.848;2022-10-18T00:59:47;99763.05;;;12.62;66.53
62436;BME280;48480;50.252;18.848;2022-10-18T01:02:32;99767.88;;;12.60;66.61
62436;BME280;48480;50.252;18.848;2022-10-18T01:05:17;99769.69;;;12.58;66.61
62436;BME280;48480;50.252;18.848;2022-10-18T01:17:10;99754.00;;;12.41;67.01
62436;BME280;48480;50.252;18.848;2022-10-18T01:20:17;99756.73;;;12.41;67.12
62436;BME280;48480;50.252;18.848;2022-10-18T01:23:11;99759.98;;;12.43;67.09
62436;BME280;48480;50.252;18.848;2022-10-18T01:31:59;99754.67;;;12.43;67.07
62436;BME280;48480;50.252;18.848;2022-10-18T01:34:46;99751.08;;;12.39;67.09
62436;BME280;48480;50.252;18.848;2022-10-18T01:37:33;99747.86;;;12.34;67.13
62436;BME280;48480;50.252;18.848;2022-10-18T01:40:19;99745.86;;;12.29;67.16
62436;BME280;48480;50.252;18.848;2022-10-18T01:43:05;99745.82;;;12.24;67.30
62436;BME280;48480;50.252;18.848;2022-10-18T01:45:53;99743.19;;;12.19;67.20
62436;BME280;48480;50.252;18.848;2022-10-18T01:48:38;99741.25;;;12.12;67.25
62436;BME280;48480;50.252;18.848;2022-10-18T01:51:27;99742.86;;;12.01;67.36
62436;BME280;48480;50.252;18.848;2022-10-18T01:54:14;99737.78;;;11.91;67.52
62436;BME280;48480;50.252;18.848;2022-10-18T01:57:18;99740.20;;;11.83;67.60
62436;BME280;48480;50.252;18.848;2022-10-18T02:00:08;99741.50;;;11.76;67.63
62436;BME280;48480;50.252;18.848;2022-10-18T02:03:21;99737.95;;;11.68;67.83
62436;BME280;48480;50.252;18.848;2022-10-18T02:06:15;99735.84;;;11.65;68.06
62436;BME280;48480;50.252;18.848;2022-10-18T02:09:08;99734.30;;;11.64;68.15
62436;BME280;48480;50.252;18.848;2022-10-18T02:11:53;99733.12;;;11.65;68.31
62436;BME280;48480;50.252;18.848;2022-10-18T02:14:40;99729.31;;;11.66;68.52
62436;BME280;48480;50.252;18.848;2022-10-18T02:17:27;99729.54;;;11.71;68.53
62436;BME280;48480;50.252;18.848;2022-10-18T02:20:16;99723.16;;;11.77;68.49
62436;BME280;48480;50.252;18.848;2022-10-18T02:23:05;99723.15;;;11.84;68.48
62436;BME280;48480;50.252;18.848;2022-10-18T02:25:50;99719.97;;;11.89;68.35
62436;BME280;48480;50.252;18.848;2022-10-18T02:28:35;99719.38;;;11.94;68.19
62436;BME280;48480;50.252;18.848;2022-10-18T02:31:30;99716.08;;;11.98;68.05
62436;BME280;48480;50.252;18.848;2022-10-18T02:37:09;99711.23;;;12.13;67.82
62436;BME280;48480;50.252;18.848;2022-10-18T02:39:53;99711.92;;;12.21;67.52
62436;BME280;48480;50.252;18.848;2022-10-18T02:42:43;99709.38;;;12.25;67.40
62436;BME280;48480;50.252;18.848;2022-10-18T02:45:27;99712.42;;;12.27;67.32
62436;BME280;48480;50.252;18.848;2022-10-18T02:48:11;99710.47;;;12.27;67.26
62436;BME280;48480;50.252;18.848;2022-10-18T02:50:55;99704.66;;;12.28;67.11
62436;BME280;48480;50.252;18.848;2022-10-18T02:53:39;99702.66;;;12.28;67.08
62436;BME280;48480;50.252;18.848;2022-10-18T02:56:23;99698.71;;;12.30;66.85
62436;BME280;48480;50.252;18.848;2022-10-18T02:59:07;99697.48;;;12.33;66.71
62436;BME280;48480;50.252;18.848;2022-10-18T03:01:51;99699.91;;;12.36;66.42
62436;BME280;48480;50.252;18.848;2022-10-18T03:04:35;99699.98;;;12.40;66.21
62436;BME280;48480;50.252;18.848;2022-10-18T03:07:19;99703.39;;;12.44;65.98
62436;BME280;48480;50.252;18.848;2022-10-18T03:10:03;99704.19;;;12.46;66.02
62436;BME280;48480;50.252;18.848;2022-10-18T03:12:47;99704.09;;;12.48;66.08
62436;BME280;48480;50.252;18.848;2022-10-18T03:15:31;99698.29;;;12.47;66.21
62436;BME280;48480;50.252;18.848;2022-10-18T03:18:15;99695.69;;;12.45;66.27
62436;BME280;48480;50.252;18.848;2022-10-18T03:21:04;99692.21;;;12.44;66.09
62436;BME280;48480;50.252;18.848;2022-10-18T03:23:48;99692.38;;;12.44;65.94
62436;BME280;48480;50.252;18.848;2022-10-18T03:26:32;99692.71;;;12.43;65.87
62436;BME280;48480;50.252;18.848;2022-10-18T03:29:16;99694.60;;;12.43;65.82
62436;BME280;48480;50.252;18.848;2022-10-18T03:32:00;99696.34;;;12.42;65.78
62436;BME280;48480;50.252;18.848;2022-10-18T03:34:44;99705.89;;;12.41;65.99
62436;BME280;48480;50.252;18.848;2022-10-18T03:37:28;99704.30;;;12.33;65.93
62436;BME280;48480;50.252;18.848;2022-10-18T03:40:12;99706.05;;;12.25;65.94
62436;BME280;48480;50.252;18.848;2022-10-18T03:42:56;99703.86;;;12.15;66.26
62436;BME280;48480;50.252;18.848;2022-10-18T03:45:40;99710.23;;;12.04;66.36
62436;BME280;48480;50.252;18.848;2022-10-18T03:48:24;99708.71;;;11.90;66.60
62436;BME280;48480;50.252;18.848;2022-10-18T03:51:08;99709.91;;;11.75;67.02
62436;BME280;48480;50.252;18.848;2022-10-18T03:53:52;99710.92;;;11.65;67.40
62436;BME280;48480;50.252;18.848;2022-10-18T03:56:36;99708.66;;;11.57;67.71
62436;BME280;48480;50.252;18.848;2022-10-18T03:59:20;99711.98;;;11.50;68.04
62436;BME280;48480;50.252;18.848;2022-10-18T04:02:06;99719.98;;;11.46;68.30
62436;BME280;48480;50.252;18.848;2022-10-18T04:04:31;99721.27;;;11.39;68.51
62436;BME280;48480;50.252;18.848;2022-10-18T04:06:56;99725.14;;;11.35;68.81
62436;BME280;48480;50.252;18.848;2022-10-18T04:09:22;99729.23;;;11.31;69.06
62436;BME280;48480;50.252;18.848;2022-10-18T04:11:51;99728.42;;;11.30;69.13
62436;BME280;48480;50.252;18.848;2022-10-18T04:14:16;99727.67;;;11.31;69.24
62436;BME280;48480;50.252;18.848;2022-10-18T04:16:42;99727.28;;;11.31;69.33
62436;BME280;48480;50.252;18.848;2022-10-18T04:19:07;99727.52;;;11.31;69.35
62436;BME280;48480;50.252;18.848;2022-10-18T04:21:33;99727.80;;;11.33;69.37
62436;BME280;48480;50.252;18.848;2022-10-18T04:24:00;99723.47;;;11.34;69.42
62436;BME280;48480;50.252;18.848;2022-10-18T04:26:26;99726.45;;;11.34;69.38
62436;BME280;48480;50.252;18.848;2022-10-18T04:28:51;99724.08;;;11.34;69.52
62436;BME280;48480;50.252;18.848;2022-10-18T04:31:16;99728.45;;;11.36;69.44
62436;BME280;48480;50.252;18.848;2022-10-18T04:33:42;99723.17;;;11.34;69.37
62436;BME280;48480;50.252;18.848;2022-10-18T04:36:08;99729.42;;;11.40;69.36
62436;BME280;48480;50.252;18.848;2022-10-18T04:38:34;99725.59;;;11.41;69.34
62436;BME280;48480;50.252;18.848;2022-10-18T04:41:00;99698.38;;;11.28;69.15
62436;BME280;48480;50.252;18.848;2022-10-18T04:43:25;99720.17;;;11.44;69.15
62436;BME280;48480;50.252;18.848;2022-10-18T04:45:51;99698.02;;;11.26;69.09
62436;BME280;48480;50.252;18.848;2022-10-18T04:48:17;99731.00;;;11.38;69.23
62436;BME280;48480;50.252;18.848;2022-10-18T04:50:43;99713.29;;;11.20;69.40
62436;BME280;48480;50.252;18.848;2022-10-18T04:53:08;99723.36;;;11.22;69.46
62436;BME280;48480;50.252;18.848;2022-10-18T04:55:34;99725.43;;;11.16;69.49
62436;BME280;48480;50.252;18.848;2022-10-18T04:57:59;99721.19;;;11.12;69.60
62436;BME280;48480;50.252;18.848;2022-10-18T05:00:25;99721.67;;;11.12;69.79
62436;BME280;48480;50.252;18.848;2022-10-18T05:02:58;99724.45;;;11.14;69.82
62436;BME280;48480;50.252;18.848;2022-10-18T05:05:23;99716.36;;;11.17;69.73
62436;BME280;48480;50.252;18.848;2022-10-18T05:07:49;99716.64;;;11.19;69.97
62436;BME280;48480;50.252;18.848;2022-10-18T05:10:15;99716.36;;;11.23;70.18
62436;BME280;48480;50.252;18.848;2022-10-18T05:12:40;99716.44;;;11.27;70.12
62436;BME280;48480;50.252;18.848;2022-10-18T05:15:08;99709.48;;;11.32;70.01
62436;BME280;48480;50.252;18.848;2022-10-18T05:17:33;99712.06;;;11.33;69.94
62436;BME280;48480;50.252;18.848;2022-10-18T05:19:59;99712.85;;;11.34;70.09
62436;BME280;48480;50.252;18.848;2022-10-18T05:22:24;99710.20;;;11.34;70.22
62436;BME280;48480;50.252;18.848;2022-10-18T05:24:50;99713.03;;;11.36;70.00
62436;BME280;48480;50.252;18.848;2022-10-18T05:27:15;99718.16;;;11.42;69.78
62436;BME280;48480;50.252;18.848;2022-10-18T05:29:40;99720.85;;;11.46;69.89
62436;BME280;48480;50.252;18.848;2022-10-18T05:32:06;99721.96;;;11.52;69.75
62436;BME280;48480;50.252;18.848;2022-10-18T05:34:31;99718.46;;;11.56;69.50
62436;BME280;48480;50.252;18.848;2022-10-18T05:36:58;99706.17;;;11.59;69.43
62436;BME280;48480;50.252;18.848;2022-10-18T05:39:23;99706.45;;;11.62;69.29
62436;BME280;48480;50.252;18.848;2022-10-18T05:41:49;99709.17;;;11.66;69.20
62436;BME280;48480;50.252;18.848;2022-10-18T05:44:14;99711.48;;;11.71;69.17
62436;BME280;48480;50.252;18.848;2022-10-18T05:46:40;99712.69;;;11.75;69.10
62436;BME280;48480;50.252;18.848;2022-10-18T05:49:05;99710.23;;;11.81;68.98
62436;BME280;48480;50.252;18.848;2022-10-18T05:51:31;99710.30;;;11.84;68.82
62436;BME280;48480;50.252;18.848;2022-10-18T05:53:56;99715.54;;;11.87;68.74
62436;BME280;48480;50.252;18.848;2022-10-18T05:56:21;99713.12;;;11.86;68.77
62436;BME280;48480;50.252;18.848;2022-10-18T05:58:50;99716.48;;;11.84;68.88
62436;BME280;48480;50.252;18.848;2022-10-18T06:01:16;99719.09;;;11.82;68.97
62436;BME280;48480;50.252;18.848;2022-10-18T06:03:42;99718.29;;;11.83;69.17
62436;BME280;48480;50.252;18.848;2022-10-18T06:06:09;99715.98;;;11.85;69.12
62436;BME280;48480;50.252;18.848;2022-10-18T06:08:36;99691.95;;;11.75;69.02
62436;BME280;48480;50.252;18.848;2022-10-18T06:13:40;99715.56;;;11.93;69.26
62436;BME280;48480;50.252;18.848;2022-10-18T06:16:08;99718.55;;;11.91;69.43
62436;BME280;48480;50.252;18.848;2022-10-18T06:18:34;99721.60;;;11.87;69.58
62436;BME280;48480;50.252;18.848;2022-10-18T06:20:59;99716.90;;;11.88;69.83
62436;BME280;48480;50.252;18.848;2022-10-18T06:23:26;99712.27;;;11.93;69.85
62436;BME280;48480;50.252;18.848;2022-10-18T06:26:00;99704.12;;;12.02;69.55
62436;BME280;48480;50.252;18.848;2022-10-18T06:28:27;99705.44;;;12.11;69.05
62436;BME280;48480;50.252;18.848;2022-10-18T06:30:52;99706.58;;;12.20;68.55
62436;BME280;48480;50.252;18.848;2022-10-18T06:33:18;99708.05;;;12.31;68.27
62436;BME280;48480;50.252;18.848;2022-10-18T06:35:59;99716.10;;;12.41;68.25
62436;BME280;48480;50.252;18.848;2022-10-18T06:38:27;99706.67;;;12.39;68.44
62436;BME280;48480;50.252;18.848;2022-10-18T06:40:53;99720.44;;;12.45;68.71
62436;BME280;48480;50.252;18.848;2022-10-18T06:43:19;99721.90;;;12.45;68.79
62436;BME280;48480;50.252;18.848;2022-10-18T06:45:45;99720.48;;;12.43;68.91
62436;BME280;48480;50.252;18.848;2022-10-18T06:48:12;99718.98;;;12.46;68.89
62436;BME280;48480;50.252;18.848;2022-10-18T06:50:52;99720.22;;;12.58;68.68
62436;BME280;48480;50.252;18.848;2022-10-18T06:53:18;99712.41;;;12.67;68.48
62436;BME280;48480;50.252;18.848;2022-10-18T06:55:45;99711.94;;;12.77;68.36
62436;BME280;48480;50.252;18.848;2022-10-18T06:58:11;99702.05;;;12.85;67.64
62436;BME280;48480;50.252;18.848;2022-10-18T07:00:40;99710.35;;;12.99;67.02
62436;BME280;48480;50.252;18.848;2022-10-18T07:03:06;99711.11;;;13.11;66.67
62436;BME280;48480;50.252;18.848;2022-10-18T07:05:31;99712.41;;;13.35;66.11
62436;BME280;48480;50.252;18.848;2022-10-18T07:07:57;99710.15;;;13.62;65.68
62436;BME280;48480;50.252;18.848;2022-10-18T07:10:23;99716.97;;;14.06;65.42
62436;BME280;48480;50.252;18.848;2022-10-18T07:12:50;99716.73;;;14.57;64.34
62436;BME280;48480;50.252;18.848;2022-10-18T07:15:18;99718.67;;;15.14;62.88
62436;BME280;48480;50.252;18.848;2022-10-18T07:17:46;99713.30;;;15.74;61.35
62436;BME280;48480;50.252;18.848;2022-10-18T07:20:15;99714.77;;;16.39;59.80
62436;BME280;48480;50.252;18.848;2022-10-18T07:22:40;99709.83;;;17.00;58.10
62436;BME280;48480;50.252;18.848;2022-10-18T07:25:06;99711.03;;;17.70;56.33
62436;BME280;48480;50.252;18.848;2022-10-18T07:27:52;99708.62;;;18.28;54.72
62436;BME280;48480;50.252;18.848;2022-10-18T07:30:18;99710.25;;;18.92;52.97
62436;BME280;48480;50.252;18.848;2022-10-18T07:32:59;99702.55;;;19.36;51.41
62436;BME280;48480;50.252;18.848;2022-10-18T07:35:36;99691.31;;;19.80;50.53
62436;BME280;48480;50.252;18.848;2022-10-18T07:38:01;99708.48;;;20.35;49.54
62436;BME280;48480;50.252;18.848;2022-10-18T07:40:27;99708.38;;;20.77;48.15
62436;BME280;48480;50.252;18.848;2022-10-18T07:42:52;99706.40;;;21.17;47.23
62436;BME280;48480;50.252;18.848;2022-10-18T07:45:18;99707.97;;;21.53;46.29
62436;BME280;48480;50.252;18.848;2022-10-18T07:47:43;99704.96;;;21.86;45.33
62436;BME280;48480;50.252;18.848;2022-10-18T07:50:09;99702.06;;;22.19;44.22
62436;BME280;48480;50.252;18.848;2022-10-18T07:52:34;99697.98;;;22.53;43.05
62436;BME280;48480;50.252;18.848;2022-10-18T07:54:59;99693.05;;;22.78;41.98
62436;BME280;48480;50.252;18.848;2022-10-18T07:57:25;99691.17;;;22.97;41.27
62436;BME280;48480;50.252;18.848;2022-10-18T07:59:50;99687.77;;;23.15;40.58
62436;BME280;48480;50.252;18.848;2022-10-18T08:02:21;99688.03;;;23.35;39.84
62436;BME280;48480;50.252;18.848;2022-10-18T08:04:47;99687.48;;;23.41;38.99
62436;BME280;48480;50.252;18.848;2022-10-18T08:07:12;99683.58;;;23.23;39.02
62436;BME280;48480;50.252;18.848;2022-10-18T08:09:38;99680.52;;;23.23;39.13
62436;BME280;48480;50.252;18.848;2022-10-18T08:12:03;99677.05;;;23.27;38.57
62436;BME280;48480;50.252;18.848;2022-10-18T08:14:29;99682.75;;;23.25;38.35
62436;BME280;48480;50.252;18.848;2022-10-18T08:16:54;99681.64;;;23.36;38.31
62436;BME280;48480;50.252;18.848;2022-10-18T08:19:20;99678.85;;;23.51;37.99
62436;BME280;48480;50.252;18.848;2022-10-18T08:21:46;99676.56;;;23.63;37.52
62436;BME280;48480;50.252;18.848;2022-10-18T08:24:12;99677.67;;;23.77;37.39
62436;BME280;48480;50.252;18.848;2022-10-18T08:26:38;99674.16;;;23.91;36.59
62436;BME280;48480;50.252;18.848;2022-10-18T08:29:03;99671.30;;;23.95;35.98
62436;BME280;48480;50.252;18.848;2022-10-18T08:31:28;99665.06;;;23.91;36.18
62436;BME280;48480;50.252;18.848;2022-10-18T08:33:54;99663.02;;;23.96;36.14
62436;BME280;48480;50.252;18.848;2022-10-18T08:36:25;99659.30;;;24.03;35.86
62436;BME280;48480;50.252;18.848;2022-10-18T08:38:51;99657.23;;;24.14;35.76
62436;BME280;48480;50.252;18.848;2022-10-18T08:46:38;99652.84;;;24.32;35.19
62436;BME280;48480;50.252;18.848;2022-10-18T08:49:11;99652.17;;;24.28;35.25
62436;BME280;48480;50.252;18.848;2022-10-18T08:51:44;99652.36;;;24.30;34.63
62436;BME280;48480;50.252;18.848;2022-10-18T08:54:13;99652.64;;;24.27;34.54
62436;BME280;48480;50.252;18.848;2022-10-18T08:56:44;99646.41;;;24.30;34.59
62436;BME280;48480;50.252;18.848;2022-10-18T08:59:11;99644.45;;;24.30;34.38
62436;BME280;48480;50.252;18.848;2022-10-18T09:04:43;99635.11;;;24.19;33.92
62436;BME280;48480;50.252;18.848;2022-10-18T09:09:49;99629.92;;;23.99;34.38
62436;BME280;48480;50.252;18.848;2022-10-18T09:23:46;99622.64;;;24.07;34.47
62436;BME280;48480;50.252;18.848;2022-10-18T09:26:36;99620.20;;;24.15;34.56
62436;BME280;48480;50.252;18.848;2022-10-18T09:32:26;99612.27;;;24.41;34.26
62436;BME280;48480;50.252;18.848;2022-10-18T09:35:13;99616.45;;;24.54;33.63
62436;BME280;48480;50.252;18.848;2022-10-18T09:37:41;99614.80;;;24.55;33.22
62436;BME280;48480;50.252;18.848;2022-10-18T09:40:18;99610.30;;;24.50;33.01
62436;BME280;48480;50.252;18.848;2022-10-18T09:43:09;99610.02;;;24.45;32.86
62436;BME280;48480;50.252;18.848;2022-10-18T09:45:40;99612.67;;;24.33;32.55
62436;BME280;48480;50.252;18.848;2022-10-18T09:48:41;99604.57;;;24.19;32.66
62436;BME280;48480;50.252;18.848;2022-10-18T09:51:19;99601.69;;;24.13;32.49
62436;BME280;48480;50.252;18.848;2022-10-18T09:53:56;99603.66;;;24.04;32.65
62436;BME280;48480;50.252;18.848;2022-10-18T09:56:27;99570.98;;;23.82;32.51
62436;BME280;48480;50.252;18.848;2022-10-18T09:58:56;99602.63;;;24.02;32.75
62436;BME280;48480;50.252;18.848;2022-10-18T10:01:28;99598.36;;;24.07;32.29
62436;BME280;48480;50.252;18.848;2022-10-18T10:03:55;99598.20;;;24.07;31.94
62436;BME280;48480;50.252;18.848;2022-10-18T10:06:30;99594.27;;;24.03;31.58
62436;BME280;48480;50.252;18.848;2022-10-18T10:09:05;99585.99;;;23.98;32.05
62436;BME280;48480;50.252;18.848;2022-10-18T10:11:41;99587.33;;;23.99;32.20
62436;BME280;48480;50.252;18.848;2022-10-18T10:14:19;99582.44;;;24.03;32.36
62436;BME280;48480;50.252;18.848;2022-10-18T10:16:53;99578.96;;;24.09;31.87
62436;BME280;48480;50.252;18.848;2022-10-18T10:19:26;99572.92;;;24.07;31.78
62436;BME280;48480;50.252;18.848;2022-10-18T10:22:11;99571.42;;;24.17;31.80
62436;BME280;48480;50.252;18.848;2022-10-18T10:25:17;99567.44;;;24.18;31.14
62436;BME280;48480;50.252;18.848;2022-10-18T10:27:43;99555.40;;;24.11;31.06
62436;BME280;48480;50.252;18.848;2022-10-18T10:30:25;99556.01;;;24.08;31.18
62436;BME280;48480;50.252;18.848;2022-10-18T10:32:52;99555.45;;;24.05;31.43
62436;BME280;48480;50.252;18.848;2022-10-18T10:35:36;99546.65;;;24.04;31.50
62436;BME280;48480;50.252;18.848;2022-10-18T10:38:05;99542.38;;;24.07;31.81
62436;BME280;48480;50.252;18.848;2022-10-18T10:40:47;99511.30;;;23.99;31.96
62436;BME280;48480;50.252;18.848;2022-10-18T10:43:21;99531.38;;;24.23;31.66
62436;BME280;48480;50.252;18.848;2022-10-18T10:46:02;99528.08;;;24.21;31.16
62436;BME280;48480;50.252;18.848;2022-10-18T10:48:32;99522.02;;;24.16;31.29
62436;BME280;48480;50.252;18.848;2022-10-18T10:51:09;99519.30;;;24.11;30.81
62436;BME280;48480;50.252;18.848;2022-10-18T10:53:45;99521.73;;;24.00;30.92
62436;BME280;48480;50.252;18.848;2022-10-18T10:56:35;99515.54;;;23.90;31.14
62436;BME280;48480;50.252;18.848;2022-10-18T10:59:16;99510.94;;;23.75;31.04
62436;BME280;48480;50.252;18.848;2022-10-18T11:04:52;99500.50;;;23.46;32.02
62436;BME280;48480;50.252;18.848;2022-10-18T11:07:39;99494.08;;;23.53;31.93
62436;BME280;48480;50.252;18.848;2022-10-18T11:23:09;99480.84;;;23.52;32.25
62436;BME280;48480;50.252;18.848;2022-10-18T11:30:56;99463.28;;;23.48;32.78
62436;BME280;48480;50.252;18.848;2022-10-18T11:40:07;99451.73;;;23.25;32.63
62436;BME280;48480;50.252;18.848;2022-10-18T11:53:21;99418.05;;;22.97;33.62
62436;BME280;48480;50.252;18.848;2022-10-18T12:06:41;99400.68;;;22.59;34.90
62436;BME280;48480;50.252;18.848;2022-10-18T12:09:29;99397.34;;;22.61;35.11
62436;BME280;48480;50.252;18.848;2022-10-18T12:14:38;99389.23;;;22.55;35.26
62436;BME280;48480;50.252;18.848;2022-10-18T12:20:42;99372.27;;;22.35;35.52
62436;BME280;48480;50.252;18.848;2022-10-18T12:25:54;99371.91;;;22.36;35.88
62436;BME280;48480;50.252;18.848;2022-10-18T12:28:36;99344.60;;;22.18;36.17
62436;BME280;48480;50.252;18.848;2022-10-18T12:43:53;99356.02;;;22.23;36.64
62436;BME280;48480;50.252;18.848;2022-10-18T12:46:21;99350.80;;;22.18;36.86
62436;BME280;48480;50.252;18.848;2022-10-18T12:49:02;99352.55;;;22.14;37.19
62436;BME280;48480;50.252;18.848;2022-10-18T13:04:33;99324.52;;;21.95;37.75
62436;BME280;48480;50.252;18.848;2022-10-18T13:17:14;99323.78;;;21.68;38.67
62436;BME280;48480;50.252;18.848;2022-10-18T13:28:04;99314.92;;;21.49;39.64
62436;BME280;48480;50.252;18.848;2022-10-18T13:33:32;99319.34;;;21.43;40.08
62436;BME280;48480;50.252;18.848;2022-10-18T13:36:04;99312.04;;;21.40;40.30
62436;BME280;48480;50.252;18.848;2022-10-18T13:38:41;99307.73;;;21.39;40.40
62436;BME280;48480;50.252;18.848;2022-10-18T13:41:22;99301.68;;;21.35;40.61
62436;BME280;48480;50.252;18.848;2022-10-18T13:55:02;99301.89;;;21.18;41.10
62436;BME280;48480;50.252;18.848;2022-10-18T14:10:57;99290.74;;;20.98;41.78
62436;BME280;48480;50.252;18.848;2022-10-18T14:16:27;99282.77;;;20.87;41.70
62436;BME280;48480;50.252;18.848;2022-10-18T14:19:01;99283.85;;;20.82;41.92
62436;BME280;48480;50.252;18.848;2022-10-18T14:24:20;99281.48;;;20.72;42.21
62436;BME280;48480;50.252;18.848;2022-10-18T14:27:08;99277.20;;;20.68;42.36
62436;BME280;48480;50.252;18.848;2022-10-18T14:29:49;99243.42;;;20.41;42.53
62436;BME280;48480;50.252;18.848;2022-10-18T14:36:40;99268.27;;;20.53;42.72
62436;BME280;48480;50.252;18.848;2022-10-18T14:42:19;99244.45;;;20.30;42.92
62436;BME280;48480;50.252;18.848;2022-10-18T14:44:51;99230.21;;;20.14;42.96
62436;BME280;48480;50.252;18.848;2022-10-18T14:50:25;99247.06;;;20.11;43.07
